createdAt,value
2017-07-16T00:00:11.525Z,7.50
2017-07-16T00:02:39.871Z,8.20
2017-07-16T00:05:11.376Z,17.77
2017-07-16T00:07:39.743Z,10.53
2017-07-16T00:10:08.085Z,9.40
2017-07-16T00:12:36.400Z,7.93
2017-07-16T00:15:04.746Z,9.50
2017-07-16T00:17:34.022Z,9.90
2017-07-16T00:20:04.679Z,6.20
2017-07-16T00:22:32.973Z,5.50
2017-07-16T00:25:01.301Z,8.07
2017-07-16T00:27:30.456Z,7.07
2017-07-16T00:29:58.754Z,13.20
2017-07-16T00:32:27.097Z,6.27
2017-07-16T00:34:55.387Z,6.47
2017-07-16T00:37:23.671Z,7.03
2017-07-16T00:39:52.011Z,9.60
2017-07-16T00:42:20.293Z,6.73
2017-07-16T00:44:48.620Z,6.10
2017-07-16T00:47:17.678Z,6.90
2017-07-16T00:49:45.968Z,10.23
2017-07-16T00:52:14.321Z,6.70
2017-07-16T00:54:42.604Z,6.47
2017-07-16T00:57:11.232Z,5.90
2017-07-16T00:59:39.565Z,7.47
2017-07-16T01:02:07.849Z,7.03
2017-07-16T01:04:36.176Z,18.63
2017-07-16T01:07:04.484Z,6.13
2017-07-16T01:09:32.809Z,9.30
2017-07-16T01:12:01.157Z,6.40
2017-07-16T01:14:29.464Z,6.83
2017-07-16T01:16:57.764Z,14.90
2017-07-16T01:19:26.096Z,6.23
2017-07-16T01:21:55.161Z,5.77
2017-07-16T01:24:23.488Z,5.40
2017-07-16T01:26:52.598Z,6.17
2017-07-16T01:29:21.655Z,6.60
2017-07-16T01:31:49.953Z,9.00
2017-07-16T01:34:18.289Z,4.60
2017-07-16T01:36:46.585Z,8.57
2017-07-16T01:39:14.926Z,7.73
2017-07-16T01:41:43.262Z,8.63
2017-07-16T01:44:12.317Z,7.10
2017-07-16T01:46:40.648Z,4.20
2017-07-16T01:49:09.716Z,6.07
2017-07-16T01:51:39.280Z,4.70
2017-07-16T01:54:07.617Z,9.17
2017-07-16T01:56:35.951Z,19.07
2017-07-16T01:59:05.049Z,5.40
2017-07-16T02:01:34.524Z,6.10
2017-07-16T02:04:02.879Z,6.27
2017-07-16T02:06:31.230Z,11.87
2017-07-16T02:08:59.528Z,9.40
2017-07-16T02:11:28.057Z,4.80
2017-07-16T02:13:56.389Z,6.00
2017-07-16T02:16:24.698Z,14.63
2017-07-16T02:18:53.036Z,5.10
2017-07-16T02:21:21.327Z,5.50
2017-07-16T02:23:49.681Z,6.30
2017-07-16T02:26:17.977Z,10.60
2017-07-16T02:28:47.097Z,10.13
2017-07-16T02:31:15.404Z,26.13
2017-07-16T02:33:43.704Z,14.50
2017-07-16T02:36:12.041Z,8.80
2017-07-16T02:38:40.368Z,5.67
2017-07-16T02:41:08.666Z,6.30
2017-07-16T02:43:37.014Z,5.90
2017-07-16T02:46:05.311Z,9.17
2017-07-16T02:48:34.369Z,5.80
2017-07-16T02:51:02.705Z,4.83
2017-07-16T02:53:31.010Z,7.00
2017-07-16T02:56:00.376Z,3.77
2017-07-16T02:58:28.672Z,4.57
2017-07-16T03:00:59.366Z,3.77
2017-07-16T03:03:27.704Z,4.43
2017-07-16T03:05:55.996Z,4.47
2017-07-16T03:08:24.299Z,8.17
2017-07-16T03:10:52.625Z,4.60
2017-07-16T03:13:20.925Z,3.10
2017-07-16T03:15:49.253Z,5.40
2017-07-16T03:18:17.540Z,4.43
2017-07-16T03:20:45.869Z,4.33
2017-07-16T03:23:14.175Z,6.57
2017-07-16T03:25:42.505Z,3.00
2017-07-16T03:28:10.797Z,3.30
2017-07-16T03:30:39.135Z,4.17
2017-07-16T03:33:07.437Z,9.07
2017-07-16T03:35:35.772Z,19.90
2017-07-16T03:38:04.114Z,4.80
2017-07-16T03:40:32.409Z,4.50
2017-07-16T03:43:00.904Z,17.73
2017-07-16T03:45:29.204Z,5.20
2017-07-16T03:47:57.507Z,4.13
2017-07-16T03:50:25.836Z,3.43
2017-07-16T03:52:54.908Z,6.23
2017-07-16T03:55:23.212Z,9.53
2017-07-16T03:57:51.569Z,8.30
2017-07-16T04:00:19.862Z,7.40
2017-07-16T04:02:48.151Z,3.53
2017-07-16T04:05:16.480Z,3.00
2017-07-16T04:07:44.769Z,3.13
2017-07-16T04:10:13.105Z,5.90
2017-07-16T04:12:41.410Z,4.70
2017-07-16T04:15:09.746Z,4.00
2017-07-16T04:17:38.036Z,4.80
2017-07-16T04:20:07.156Z,6.30
2017-07-16T04:22:36.216Z,3.30
2017-07-16T04:25:04.515Z,4.40
2017-07-16T04:27:32.864Z,4.03
2017-07-16T04:30:01.163Z,2.27
2017-07-16T04:32:29.496Z,5.03
2017-07-16T04:34:57.832Z,2.50
2017-07-16T04:37:26.169Z,3.07
2017-07-16T04:39:54.457Z,2.57
2017-07-16T04:42:22.804Z,2.97
2017-07-16T04:44:51.100Z,4.07
2017-07-16T04:47:19.673Z,2.47
2017-07-16T04:49:48.004Z,2.83
2017-07-16T04:52:16.296Z,2.00
2017-07-16T04:54:44.640Z,3.07
2017-07-16T04:57:12.970Z,14.33
2017-07-16T04:59:41.312Z,2.50
2017-07-16T05:02:10.373Z,10.20
2017-07-16T05:04:38.709Z,2.20
2017-07-16T05:07:07.764Z,4.30
2017-07-16T05:09:36.118Z,4.60
2017-07-16T05:12:05.176Z,8.60
2017-07-16T05:14:33.463Z,3.50
2017-07-16T05:17:01.808Z,5.27
2017-07-16T05:19:30.113Z,6.83
2017-07-16T05:21:58.449Z,3.90
2017-07-16T05:24:26.744Z,3.80
2017-07-16T05:26:55.088Z,6.30
2017-07-16T05:29:23.433Z,2.57
2017-07-16T05:31:51.730Z,2.40
2017-07-16T05:34:20.034Z,2.10
2017-07-16T05:36:50.540Z,6.47
2017-07-16T05:39:18.884Z,2.50
2017-07-16T05:41:47.194Z,9.83
2017-07-16T09:18:16.062Z,2.03
2017-07-16T09:20:44.467Z,6.33
2017-07-16T09:23:13.572Z,2.40
2017-07-16T09:25:43.609Z,4.37
2017-07-16T09:28:12.712Z,2.43
2017-07-16T09:33:17.506Z,2.87
2017-07-16T09:35:45.841Z,2.90
2017-07-16T09:38:14.132Z,9.87
2017-07-16T09:40:42.844Z,4.07
2017-07-16T09:43:11.144Z,3.13
2017-07-16T09:45:39.449Z,1.50
2017-07-16T09:48:07.784Z,1.63
2017-07-16T09:50:36.088Z,3.07
2017-07-16T09:53:04.449Z,2.50
2017-07-16T09:55:32.888Z,2.30
2017-07-16T09:58:01.192Z,1.50
2017-07-16T10:00:29.553Z,9.63
2017-07-16T10:02:57.989Z,4.30
2017-07-16T10:05:26.297Z,2.23
2017-07-16T10:07:54.593Z,4.37
2017-07-16T10:10:23.266Z,4.43
2017-07-16T10:12:51.651Z,4.33
2017-07-16T10:15:20.972Z,2.00
2017-07-16T10:17:49.329Z,3.40
2017-07-16T10:20:18.984Z,2.57
2017-07-16T10:22:47.289Z,3.70
2017-07-16T10:25:15.577Z,1.97
2017-07-16T10:27:43.906Z,1.60
2017-07-16T10:30:12.205Z,9.67
2017-07-16T10:32:40.511Z,1.70
2017-07-16T10:35:08.865Z,2.13
2017-07-16T10:37:37.840Z,1.93
2017-07-16T10:40:06.531Z,4.80
2017-07-16T10:42:34.813Z,5.27
2017-07-16T10:45:03.163Z,2.10
2017-07-16T10:47:31.473Z,1.90
2017-07-16T10:49:59.828Z,2.20
2017-07-16T10:52:28.748Z,3.03
2017-07-16T10:54:57.042Z,5.33
2017-07-16T10:57:25.368Z,2.63
2017-07-16T10:59:53.700Z,5.37
2017-07-16T11:02:21.991Z,2.30
2017-07-16T11:04:50.328Z,3.77
2017-07-16T11:07:18.629Z,3.80
2017-07-16T11:09:47.021Z,2.27
2017-07-16T11:12:15.309Z,2.77
2017-07-16T11:14:43.600Z,4.43
2017-07-16T11:17:11.949Z,3.37
2017-07-16T11:19:40.236Z,2.33
2017-07-16T11:22:08.524Z,2.43
2017-07-16T11:24:36.864Z,4.33
2017-07-16T11:27:05.188Z,6.33
2017-07-16T11:29:33.557Z,2.60
2017-07-16T11:32:03.082Z,2.67
2017-07-16T11:34:31.437Z,3.33
2017-07-16T11:36:59.727Z,6.50
2017-07-16T11:39:28.053Z,10.10
2017-07-16T11:41:57.542Z,5.17
2017-07-16T11:44:25.829Z,7.03
2017-07-16T11:46:54.216Z,3.47
2017-07-16T11:49:22.509Z,3.90
2017-07-16T11:51:50.801Z,5.90
2017-07-16T11:54:19.144Z,3.00
2017-07-16T11:56:47.448Z,4.73
2017-07-16T11:59:15.797Z,9.83
2017-07-16T12:01:44.085Z,3.73
2017-07-16T12:04:12.413Z,3.20
2017-07-16T12:06:40.709Z,3.13
2017-07-16T12:09:09.058Z,11.97
2017-07-16T12:11:37.353Z,3.20
2017-07-16T12:14:05.636Z,8.60
2017-07-16T12:16:33.981Z,3.83
2017-07-16T12:19:02.302Z,4.03
2017-07-16T12:21:30.665Z,5.23
2017-07-16T12:23:58.980Z,3.00
2017-07-16T12:26:27.304Z,5.33
2017-07-16T12:28:55.646Z,3.80
2017-07-16T12:31:23.937Z,3.70
2017-07-16T12:33:52.269Z,5.17
2017-07-16T12:36:20.553Z,3.97
2017-07-16T12:38:49.238Z,4.07
2017-07-16T12:41:17.549Z,8.53
2017-07-16T12:43:45.842Z,3.53
2017-07-16T12:46:14.361Z,3.40
2017-07-16T12:48:42.645Z,4.43
2017-07-16T12:51:10.934Z,3.73
2017-07-16T12:53:39.321Z,10.00
2017-07-16T12:56:07.660Z,5.60
2017-07-16T12:58:35.949Z,4.57
2017-07-16T13:01:04.304Z,4.63
2017-07-16T13:03:32.596Z,4.23
2017-07-16T13:06:00.917Z,3.27
2017-07-16T13:08:29.323Z,4.00
2017-07-16T13:10:58.289Z,7.93
2017-07-16T13:13:26.634Z,7.40
2017-07-16T13:15:54.925Z,3.80
2017-07-16T13:18:23.288Z,3.77
2017-07-16T13:20:51.572Z,3.40
2017-07-16T13:23:19.913Z,3.87
2017-07-16T13:25:48.258Z,4.00
2017-07-16T13:28:16.592Z,3.90
2017-07-16T13:30:44.941Z,5.00
2017-07-16T13:33:13.230Z,6.50
2017-07-16T13:35:41.517Z,3.73
2017-07-16T13:38:09.852Z,3.57
2017-07-16T13:40:39.936Z,4.87
2017-07-16T13:43:08.260Z,3.30
2017-07-16T13:45:37.026Z,5.27
2017-07-16T13:48:05.373Z,4.70
2017-07-16T13:50:33.697Z,4.23
2017-07-16T13:53:02.110Z,7.03
2017-07-16T13:55:30.520Z,6.10
2017-07-16T13:57:58.812Z,4.07
2017-07-16T14:00:27.294Z,4.10
2017-07-16T14:02:55.573Z,5.10
2017-07-16T14:05:23.867Z,3.37
2017-07-16T14:07:52.245Z,4.50
2017-07-16T14:10:20.545Z,3.20
2017-07-16T14:12:48.845Z,9.43
2017-07-16T14:15:17.180Z,3.30
2017-07-16T14:17:45.472Z,3.13
2017-07-16T14:20:13.830Z,3.50
2017-07-16T14:22:42.117Z,2.97
2017-07-16T14:25:10.621Z,3.87
2017-07-16T14:27:38.916Z,2.60
2017-07-16T14:30:07.204Z,4.33
2017-07-16T14:32:35.553Z,2.80
2017-07-16T14:35:03.921Z,3.30
2017-07-16T14:37:32.240Z,5.93
2017-07-16T14:40:00.633Z,3.50
2017-07-16T14:42:29.045Z,6.73
2017-07-16T14:44:57.639Z,6.10
2017-07-16T14:47:26.057Z,3.50
2017-07-16T14:49:54.356Z,2.80
2017-07-16T14:52:22.649Z,4.10
2017-07-16T14:54:51.010Z,6.97
2017-07-16T14:57:19.346Z,3.47
2017-07-16T14:59:47.749Z,4.30
2017-07-16T15:02:16.138Z,5.47
2017-07-16T15:04:44.507Z,5.57
2017-07-16T15:07:12.796Z,4.30
2017-07-16T15:09:41.153Z,5.60
2017-07-16T15:12:09.453Z,4.73
2017-07-16T15:14:37.740Z,4.50
2017-07-16T15:17:06.087Z,7.73
2017-07-16T15:19:34.432Z,7.17
2017-07-16T15:22:02.734Z,7.10
2017-07-16T15:24:32.893Z,5.67
2017-07-16T15:27:01.293Z,5.97
2017-07-16T15:29:29.687Z,9.43
2017-07-16T15:31:58.095Z,9.73
2017-07-16T15:34:26.537Z,10.60
2017-07-16T15:36:54.913Z,9.73
2017-07-16T15:39:23.209Z,9.53
2017-07-16T15:41:51.545Z,15.83
2017-07-16T15:44:19.836Z,7.50
2017-07-16T15:46:48.200Z,7.20
2017-07-16T15:49:16.819Z,9.20
2017-07-16T15:51:45.145Z,8.07
2017-07-16T15:54:13.477Z,8.47
2017-07-16T15:56:41.773Z,8.30
2017-07-16T15:59:10.124Z,11.83
2017-07-16T16:01:38.468Z,8.50
2017-07-16T16:04:06.757Z,14.50
2017-07-16T16:06:35.129Z,10.43
2017-07-16T16:09:04.870Z,11.60
2017-07-16T16:11:33.346Z,12.93
2017-07-16T16:14:01.654Z,11.97
2017-07-16T16:16:30.115Z,15.47
2017-07-16T16:18:59.252Z,8.33
2017-07-16T16:21:27.553Z,9.57
2017-07-16T16:23:55.951Z,7.50
2017-07-16T16:26:24.242Z,13.10
2017-07-16T16:28:52.539Z,7.83
2017-07-16T16:31:20.887Z,7.93
2017-07-16T16:33:49.174Z,11.80
2017-07-16T16:36:17.526Z,14.20
2017-07-16T16:38:45.865Z,10.87
2017-07-16T16:41:14.261Z,7.93
2017-07-16T16:43:42.606Z,16.00
2017-07-16T16:46:10.942Z,9.53
2017-07-16T16:48:39.241Z,10.57
2017-07-16T16:51:07.582Z,9.20
2017-07-16T16:53:35.878Z,13.03
2017-07-16T16:56:04.233Z,11.90
2017-07-16T16:58:32.629Z,9.83
2017-07-16T17:01:00.949Z,15.43
2017-07-16T17:03:29.300Z,15.63
2017-07-16T17:05:57.794Z,8.60
2017-07-16T17:08:26.087Z,9.87
2017-07-16T17:10:54.381Z,20.83
2017-07-16T17:13:22.730Z,13.00
2017-07-16T17:15:51.212Z,12.63
2017-07-16T17:18:19.517Z,13.13
2017-07-16T17:20:48.603Z,9.60
2017-07-16T17:23:16.944Z,17.60
2017-07-16T17:25:45.248Z,11.67
2017-07-16T17:28:13.595Z,15.50
2017-07-16T17:30:42.665Z,18.90
2017-07-16T17:33:11.011Z,15.80
2017-07-16T17:35:39.380Z,14.40
2017-07-16T17:38:07.684Z,12.37
2017-07-16T17:40:35.997Z,12.60
2017-07-16T17:43:04.353Z,16.67
2017-07-16T17:45:32.675Z,10.50
2017-07-16T17:48:01.033Z,14.50
2017-07-16T17:50:29.367Z,15.87
2017-07-16T17:52:57.733Z,15.90
2017-07-16T17:55:26.064Z,17.20
2017-07-16T17:57:54.421Z,24.97
2017-07-16T18:00:22.716Z,13.80
2017-07-16T18:02:51.021Z,14.60
2017-07-16T18:05:19.379Z,19.00
2017-07-16T18:07:47.726Z,15.70
2017-07-16T18:10:16.088Z,21.40
2017-07-16T18:12:45.678Z,21.17
2017-07-16T18:15:13.996Z,24.00
2017-07-16T18:17:42.407Z,26.97
2017-07-16T18:20:10.709Z,27.20
2017-07-16T18:22:39.113Z,21.60
2017-07-16T18:25:07.429Z,17.77
2017-07-16T18:27:35.785Z,19.43
2017-07-16T18:30:04.105Z,19.03
2017-07-16T18:32:32.423Z,20.97
2017-07-16T18:35:00.782Z,21.50
2017-07-16T18:37:29.139Z,23.60
2017-07-16T18:39:57.489Z,19.60
2017-07-16T18:42:25.842Z,21.00
2017-07-16T18:44:54.232Z,25.73
2017-07-16T18:47:22.656Z,19.23
2017-07-16T18:49:51.004Z,24.20
2017-07-16T18:52:19.366Z,31.67
2017-07-16T18:54:47.693Z,24.73
2017-07-16T18:57:15.995Z,20.67
2017-07-16T18:59:44.346Z,27.73
2017-07-16T19:02:13.873Z,27.23
2017-07-16T19:04:42.221Z,27.27
2017-07-16T19:07:10.571Z,26.50
2017-07-16T19:09:38.877Z,22.87
2017-07-16T19:12:07.231Z,23.80
2017-07-16T19:14:35.577Z,30.70
2017-07-16T19:17:03.887Z,37.53
2017-07-16T19:19:32.239Z,26.43
2017-07-16T19:22:01.034Z,23.93
2017-07-16T19:24:29.574Z,29.37
2017-07-16T19:26:58.239Z,23.67
2017-07-16T19:29:26.745Z,24.90
2017-07-16T19:31:56.179Z,26.20
2017-07-16T19:34:25.014Z,24.70
2017-07-16T19:36:53.818Z,33.87
2017-07-16T19:39:22.450Z,24.07
2017-07-16T19:41:50.786Z,29.80
2017-07-16T19:44:19.404Z,27.77
2017-07-16T19:46:47.848Z,29.03
2017-07-16T19:49:16.581Z,33.77
2017-07-16T19:51:45.141Z,31.33
2017-07-16T19:54:18.094Z,36.53
2017-07-16T19:56:46.876Z,32.60
2017-07-16T19:59:15.426Z,29.43
2017-07-16T20:01:44.169Z,34.10
2017-07-16T20:04:13.429Z,37.47
2017-07-16T20:06:42.067Z,29.03
2017-07-16T20:09:10.461Z,29.17
2017-07-16T20:11:39.089Z,27.00
2017-07-16T20:14:07.513Z,37.97
2017-07-16T20:16:36.171Z,40.50
2017-07-16T20:19:05.008Z,26.40
2017-07-16T20:21:33.539Z,30.37
2017-07-16T20:24:02.011Z,38.27
2017-07-16T20:26:30.344Z,34.40
2017-07-16T20:28:58.675Z,38.17
2017-07-16T20:31:27.045Z,38.07
2017-07-16T20:33:55.426Z,37.17
2017-07-16T20:36:23.789Z,29.47
2017-07-16T20:38:52.096Z,36.37
2017-07-16T20:41:20.397Z,36.50
2017-07-16T20:43:48.767Z,32.90
2017-07-16T20:46:17.109Z,37.53
2017-07-16T20:48:45.412Z,33.70
2017-07-16T20:51:14.634Z,39.80
2017-07-16T20:53:42.941Z,36.30
2017-07-16T20:56:11.388Z,38.17
2017-07-16T20:58:39.699Z,48.57
2017-07-16T21:01:08.029Z,36.23
2017-07-16T21:03:36.389Z,36.37
2017-07-16T21:06:04.697Z,36.63
2017-07-16T21:08:33.008Z,41.13
2017-07-16T21:11:03.129Z,39.00
2017-07-16T21:13:31.461Z,28.47
2017-07-16T21:15:59.765Z,36.27
2017-07-16T21:18:28.176Z,34.33
2017-07-16T21:20:56.481Z,36.90
2017-07-16T21:23:24.785Z,28.10
2017-07-16T21:25:53.157Z,27.80
2017-07-16T21:28:21.457Z,36.33
2017-07-16T21:30:49.765Z,26.13
2017-07-16T21:33:18.132Z,34.53
2017-07-16T21:35:46.488Z,33.43
2017-07-16T21:38:14.965Z,27.33
2017-07-16T21:40:43.577Z,34.80
2017-07-16T21:43:11.991Z,32.00
2017-07-16T21:45:41.852Z,25.53
2017-07-16T21:48:10.207Z,37.20
2017-07-16T21:50:38.513Z,32.97
2017-07-16T21:53:06.857Z,31.87
2017-07-16T21:55:35.222Z,29.10
2017-07-16T21:58:03.536Z,33.70
2017-07-16T22:00:31.859Z,41.97
2017-07-16T22:03:01.709Z,37.23
2017-07-16T22:05:30.123Z,35.00
2017-07-16T22:07:58.541Z,38.90
2017-07-16T22:10:26.856Z,35.70
2017-07-16T22:12:55.384Z,40.83
2017-07-16T22:15:23.681Z,41.23
2017-07-16T22:17:51.980Z,39.20
2017-07-16T22:20:20.332Z,37.50
2017-07-16T22:22:48.647Z,32.20
2017-07-16T22:25:17.041Z,37.20
2017-07-16T22:27:45.340Z,33.47
2017-07-16T22:30:13.643Z,38.33
2017-07-16T22:32:41.983Z,37.23
2017-07-16T22:35:10.317Z,41.37
2017-07-16T22:37:38.684Z,41.50
2017-07-16T22:40:06.991Z,40.80
2017-07-16T22:42:35.296Z,44.53
2017-07-16T22:45:05.370Z,47.87
2017-07-16T22:47:33.676Z,47.97
2017-07-16T22:50:02.004Z,54.73
2017-07-16T22:52:30.393Z,49.10
2017-07-16T22:54:58.899Z,46.90
2017-07-16T22:57:27.268Z,51.27
2017-07-16T22:59:55.585Z,46.50
2017-07-16T23:02:23.889Z,56.73
2017-07-16T23:04:52.249Z,59.43
2017-07-16T23:07:20.617Z,55.37
2017-07-16T23:09:48.979Z,51.80
2017-07-16T23:12:17.307Z,54.90
2017-07-16T23:14:45.607Z,51.37
2017-07-16T23:17:13.953Z,58.50
2017-07-16T23:19:42.270Z,60.30
2017-07-16T23:22:10.643Z,59.30
2017-07-16T23:24:38.944Z,56.40
2017-07-16T23:27:07.249Z,57.93
2017-07-16T23:29:35.603Z,69.37
2017-07-16T23:32:03.969Z,63.50
2017-07-16T23:34:32.331Z,65.00
2017-07-16T23:37:00.650Z,63.93
2017-07-16T23:39:29.003Z,60.00
2017-07-16T23:41:57.354Z,61.77
2017-07-16T23:44:25.658Z,64.97
2017-07-16T23:46:53.968Z,63.27
2017-07-16T23:49:22.348Z,56.47
2017-07-16T23:51:50.693Z,50.60
2017-07-16T23:54:19.010Z,66.23
2017-07-16T23:56:47.386Z,59.73
2017-07-16T23:59:15.706Z,58.97
